Aviation Digital Data Service (ADDS)

Output produced by METARs form (0152 UTC 22 June 2018)
found at http://www.aviationweather.gov/adds/metars/
 
EFTP 220150Z AUTO 20008KT 7000 RA FEW002 SCT038 BKN050 11/11 Q0990 RETSRA
EFTP 220120Z AUTO 21006KT 6000 RA FEW006 SCT016 BKN024 BKN031 11/11 Q0990 RERA
EFTP 220050Z AUTO 22008KT 7000 +RA FEW008 BKN011 11/11 Q0991 RERA
EFTP 220020Z AUTO 22007KT 9999 RA FEW002 BKN006 OVC008 12/12 Q0991
EFTP 212350Z AUTO 11005KT 070V150 9999 -RA FEW003 SCT007 BKN010 BKN021 13/13 Q0991 RERA
EFTP 212320Z AUTO 08008KT 9999 RA FEW003 SCT008 BKN019 BKN055 13/13 Q0992
EFTP 212250Z AUTO 07010KT 9999 RA FEW004 BKN010 BKN015 13/13 Q0993 RERA
EFTP 212220Z AUTO 07008KT 5000 +RA FEW003 SCT006 BKN009 BKN018 13/13 Q0994 RERA
EFTP 212150Z AUTO 08007KT 6000 +RA FEW003 SCT023 BKN034 BKN050 13/13 Q0995 RERA
EFTP 212120Z AUTO 07007KT 5000 RA FEW003 SCT007 BKN023 BKN050 13/13 Q0996
EFTP 212050Z AUTO 09007KT 5000 RA FEW003 SCT005 BKN007 BKN010 13/13 Q0997
EFTP 212020Z AUTO 10005KT 7000 -RA SCT003 BKN005 BKN009 13/13 Q0997
EFTP 211950Z AUTO 09005KT 8000 -RA FEW002 BKN004 BKN007 13/13 Q0997
EFTP 211920Z AUTO 10006KT 9999 SCT002 BKN004 13/13 Q0998
EFTP 211850Z AUTO 08007KT 9999 BKN002 BKN004 13/13 Q0998
EFTP 211820Z AUTO 10005KT 9999 -RA SCT002 OVC004 13/13 Q0999
EFTP 211750Z AUTO 09007KT 6000 -SHRA SCT003 BKN005 12/12 Q0999
EFTP 211720Z AUTO 08008KT 5000 -SHRA FEW003 BKN005 OVC007 12/12 Q0999
EFTP 211650Z AUTO 07008KT 8000 -SHRA SCT003 BKN005 12/12 Q1000
EFTP 211620Z AUTO 06008KT 8000 -RA FEW004 SCT006 BKN008 OVC013 12/12 Q1000
EFTP 211550Z AUTO 07008KT 6000 -RA FEW006 SCT011 BKN016 BKN025 12/12 Q1001 RERA
EFTP 211520Z AUTO 07007KT 7000 -RA FEW014 SCT017 BKN022 OVC040 12/11 Q1001 RERA
EFTP 211450Z AUTO 07006KT 9999 RA FEW025 SCT035 BKN049 12/11 Q1001
EFTP 211350Z AUTO 06008KT 9999 SHRA FEW029 SCT047 BKN070 12/10 Q1002
EFTP 211320Z AUTO 09007KT 9999 -SHRA FEW040 BKN065 13/09 Q1002
EFTP 211250Z AUTO 10007KT 9999 -SHRA FEW024 SCT047 BKN070 13/09 Q1002
EFTP 211220Z 11005KT 9999 -RA SCT042 BKN058 14/10 Q1003
EFTP 211150Z 13004KT 100V170 9999 -RA FEW045 BKN065 13/09 Q1003
EFTP 211120Z 17006KT 9999 -RA FEW037 BKN052 13/08 Q1003
EFTP 211050Z 15006KT 9999 -RA SCT037 BKN062 15/08 Q1003
EFTP 211020Z 13009KT 090V170 9999 VCSH SCT042 BKN080 16/05 Q1003
EFTP 210950Z 13008KT 090V170 9999 SCT048 BKN095 17/05 Q1003
EFTP 210920Z RTD 13008KT 080V200 9999 FEW048 SCT120 17/05 Q1003
EFTP 210850Z 11007KT 080V200 CAVOK 17/04 Q1004
EFTP 210820Z 11008KT 070V160 CAVOK 17/02 Q1004
EFTP 210750Z 11009KT 070V150 CAVOK 17/02 Q1004
EFTP 210720Z 13009KT CAVOK 17/03 Q1004
EFTP 210650Z 14006KT 100V200 CAVOK 16/02 Q1004
EFTP 210620Z 15007KT 090V180 CAVOK 16/06 Q1004
EFTP 210550Z 12004KT 080V170 CAVOK 15/07 Q1005
EFTP 210520Z VRB02KT CAVOK 14/08 Q1005
EFTP 210450Z AUTO VRB03KT CAVOK 13/07 Q1005
EFTP 210420Z AUTO VRB02KT CAVOK 12/07 Q1005
EFTP 210350Z AUTO VRB03KT 160V250 CAVOK 11/07 Q1005
EFTP 210320Z AUTO 18003KT CAVOK 11/07 Q1005
EFTP 210250Z AUTO VRB01KT CAVOK 09/06 Q1005
EFTP 210220Z AUTO 19001KT CAVOK 07/05 Q1005
EFTP 210150Z AUTO 20001KT CAVOK 06/04 Q1005
EFTP 210120Z AUTO 00000KT CAVOK 07/05 Q1005
EFTP 210050Z AUTO VRB00KT CAVOK 07/05 Q1005
EFTP 210020Z AUTO VRB01KT CAVOK 07/04 Q1005
EFTP 202350Z AUTO VRB00KT CAVOK 07/04 Q1005
EFTP 202320Z AUTO VRB00KT CAVOK 06/04 Q1005
EFTP 202250Z AUTO 23002KT CAVOK 06/03 Q1005
EFTP 202220Z AUTO VRB00KT CAVOK 06/03 Q1006
EFTP 202150Z AUTO VRB00KT CAVOK 07/02 Q1006
EFTP 202120Z AUTO 00000KT CAVOK 08/02 Q1006
EFTP 202050Z AUTO 23003KT CAVOK 08/02 Q1006
EFTP 202020Z AUTO VRB02KT CAVOK 10/02 Q1006
EFTP 201950Z AUTO 23003KT CAVOK 12/02 Q1006
EFTP 201920Z AUTO 25005KT CAVOK 13/01 Q1006
EFTP 201850Z AUTO 25006KT CAVOK 15/01 Q1006
EFTP 201820Z AUTO 25010KT CAVOK 15/00 Q1006
EFTP 201750Z AUTO 26009KT CAVOK 16/00 Q1006
EFTP 201720Z AUTO 25011KT CAVOK 16/00 Q1006
EFTP 201650Z AUTO 24009KT CAVOK 16/M01 Q1006
EFTP 201620Z AUTO 26011KT CAVOK 16/M01 Q1007
EFTP 201550Z AUTO 26014KT CAVOK 17/00 Q1007
EFTP 201520Z AUTO 25014KT CAVOK 17/M01 Q1007
EFTP 201450Z AUTO 25014KT CAVOK 18/00 Q1007
EFTP 201420Z AUTO 26015KT CAVOK 18/00 Q1006